Terminal Aerodrome Forecast
Issued by NWS

Home | Current Version | Previous Version | Text Only | Print | Product List | Glossary On
Versions: 1 2 3 4 5 6 7 8 9 10 11 12 13 14 15 16 17 18 19 20
069
FTAK31 PAJN 271720
TAFASI
TAF
PASI 271720Z 2718/2818 VRB04KT 5SM -RA BR OVC030 WS020/15025KT
      TEMPO 2718/2720 3SM RA BR SCT015 OVC025
     FM272000 14009KT 3SM RA BR SCT008 OVC015 WS020/15025KT
     FM280000 16008KT 6SM -RA BR OVC015
     FM280900 18006KT P6SM -SHRA OVC015=

USA.gov is the U.S. government's official web portal to all federal, state and local government web resources and services.